Terminal Aerodrome Forecast
Issued by NWS

Home | Current Version | Previous Version | Text Only | Print | Product List | Glossary On
Versions: 1 2 3 4 5 6 7 8 9 10 11 12 13 14 15 16 17
000
FTUS43 KDTX 210700 AAA
TAFDET
TAF AMD
KDET 210744Z 2108/2206 20006KT 6SM BR BKN008 BKN100
      TEMPO 2110/2112 3SM TSRA BKN030CB
     FM211400 27008KT P6SM BKN018 BKN080
     FM211600 32006KT P6SM BKN022 BKN060
      TEMPO 2116/2120 3SM TSRA OVC024CB
     FM212100 34012KT P6SM BKN035 BKN050
     FM220300 35006KT P6SM BKN024=

USA.gov is the U.S. government's official web portal to all federal, state and local government web resources and services.